Time;durP1;ratioP1;P1;durP2;ratioP2;P2;SDS_P1;SDS_P2;PMS_P1;PMS_P2;Temp;Humidity;BMP_temperature;BMP_pressure;BME280_temperature;BME280_humidity;BME280_pressure;Samples;Min_cycle;Max_cycle;Signal;HPM_P1;HPM_P2
2022/04/08 00:03:03;;;;;;;2.55;1.17;;;;;;;5.52;57.89;98134.47;10313845;28;20054;-83
2022/04/08 00:08:05;;;;;;;3.13;1.38;;;;;;;5.40;58.63;98126.69;10314556;28;20062;-83
2022/04/08 00:13:06;;;;;;;3.13;1.20;;;;;;;5.44;58.76;98133.31;10314352;28;20054;-82
2022/04/08 00:18:08;;;;;;;4.55;1.30;;;;;;;5.55;58.82;98165.34;10314091;28;20209;-83
2022/04/08 00:23:10;;;;;;;4.25;1.42;;;;;;;5.59;58.83;98173.78;10313947;28;20132;-82
2022/04/08 00:28:12;;;;;;;6.38;1.50;;;;;;;5.51;60.07;98179.47;10314100;28;20055;-83
2022/04/08 00:33:14;;;;;;;6.70;1.65;;;;;;;5.46;60.36;98202.28;10296957;28;20062;-82
2022/04/08 00:38:15;;;;;;;6.10;1.88;;;;;;;5.16;62.31;98213.84;10313362;28;20586;-82
2022/04/08 00:43:19;;;;;;;5.18;1.50;;;;;;;5.00;62.94;98239.06;10313399;28;20551;-82
2022/04/08 00:48:21;;;;;;;6.35;1.95;;;;;;;4.70;63.12;98211.59;10310446;28;20077;-82
2022/04/08 00:53:23;;;;;;;6.85;2.20;;;;;;;4.59;63.49;98224.41;10313486;28;20069;-82
2022/04/08 00:58:25;;;;;;;7.50;2.50;;;;;;;4.52;64.73;98254.16;10313742;28;20089;-82
2022/04/08 01:03:27;;;;;;;5.80;2.50;;;;;;;4.33;65.06;98248.44;10313695;28;20105;-82
2022/04/08 01:08:30;;;;;;;6.25;3.13;;;;;;;4.34;64.84;98237.19;10312165;28;20062;-82
2022/04/08 01:13:31;;;;;;;4.82;1.70;;;;;;;4.33;64.98;98248.44;10313169;28;20085;-82
2022/04/08 01:18:34;;;;;;;5.43;1.80;;;;;;;4.26;65.82;98216.13;10312938;28;20073;-82
2022/04/08 01:23:36;;;;;;;3.60;1.45;;;;;;;4.33;65.36;98219.97;10312778;28;20108;-82
2022/04/08 01:28:38;;;;;;;4.68;1.65;;;;;;;4.38;64.69;98222.28;10312472;28;20094;-82
2022/04/08 01:33:40;;;;;;;4.63;1.77;;;;;;;4.36;65.42;98252.63;10311887;28;20054;-82
2022/04/08 01:38:42;;;;;;;4.35;1.52;;;;;;;4.31;65.72;98252.88;10311478;28;20058;-82
2022/04/08 01:43:44;;;;;;;3.25;1.52;;;;;;;4.43;65.29;98218.50;10312446;28;20054;-82
2022/04/08 01:48:47;;;;;;;4.82;1.60;;;;;;;4.45;65.63;98228.78;10312829;28;20050;-82
2022/04/08 01:53:48;;;;;;;6.72;1.75;;;;;;;4.43;66.17;98233.22;10294302;28;20463;-82
2022/04/08 01:58:50;;;;;;;3.42;1.50;;;;;;;4.52;64.97;98240.38;10313310;28;20144;-83
2022/04/08 02:03:52;;;;;;;4.95;1.65;;;;;;;4.61;64.83;98243.25;10324106;28;20467;-82
2022/04/08 02:08:54;;;;;;;3.80;1.65;;;;;;;4.70;64.72;98250.44;10326126;28;20714;-82
2022/04/08 02:13:55;;;;;;;5.03;1.50;;;;;;;4.75;64.36;98259.69;10325695;28;20463;-82
2022/04/08 02:18:58;;;;;;;3.78;1.60;;;;;;;4.84;64.04;98270.28;10323281;28;20058;-82
2022/04/08 02:24:00;;;;;;;3.88;1.75;;;;;;;4.94;63.42;98273.16;10326244;28;20058;-82
2022/04/08 02:29:01;;;;;;;3.55;1.60;;;;;;;4.86;64.06;98289.16;10326055;28;20101;-82
2022/04/08 02:34:03;;;;;;;5.20;1.50;;;;;;;4.90;63.62;98295.81;10324533;28;20114;-82
2022/04/08 02:39:05;;;;;;;3.20;1.48;;;;;;;4.74;64.23;98297.69;10324943;28;20054;-82
2022/04/08 02:44:08;;;;;;;4.82;1.70;;;;;;;4.92;63.66;98308.69;10322424;28;20109;-82
2022/04/08 02:49:10;;;;;;;3.22;1.42;;;;;;;4.92;63.44;98308.69;10324186;28;20047;-82
2022/04/08 02:54:13;;;;;;;2.00;1.20;;;;;;;4.89;63.66;98309.69;10320148;28;20073;-82
2022/04/08 02:59:14;;;;;;;4.03;1.30;;;;;;;5.06;63.15;98326.78;10321623;28;20074;-82
2022/04/08 03:04:16;;;;;;;3.35;1.25;;;;;;;5.06;63.25;98332.78;10302468;28;20081;-83
2022/04/08 03:09:18;;;;;;;3.42;1.40;;;;;;;5.04;63.24;98333.81;10318889;28;20073;-82
2022/04/08 03:14:20;;;;;;;2.78;1.40;;;;;;;4.99;63.62;98344.47;10317101;28;20486;-82
2022/04/08 03:19:22;;;;;;;4.95;1.60;;;;;;;4.97;63.84;98348.06;10318303;28;20129;-82
2022/04/08 03:24:24;;;;;;;4.93;1.73;;;;;;;4.93;63.94;98346.59;10301299;28;20112;-82
2022/04/08 03:29:25;;;;;;;3.75;1.80;;;;;;;4.97;63.62;98342.88;10315451;28;20097;-82
2022/04/08 03:34:27;;;;;;;3.60;1.73;;;;;;;4.93;63.67;98351.78;10314963;28;20151;-81
2022/04/08 03:39:29;;;;;;;4.30;1.63;;;;;;;4.84;64.13;98352.34;10317416;28;20101;-82
2022/04/08 03:44:31;;;;;;;6.20;1.70;;;;;;;4.93;63.70;98336.22;10316668;28;20094;-82
2022/04/08 03:49:35;;;;;;;5.30;1.90;;;;;;;4.97;63.58;98348.06;10299463;28;20058;-83
2022/04/08 03:54:38;;;;;;;3.47;1.73;;;;;;;4.91;63.47;98344.09;10314436;28;20082;-83
2022/04/08 03:59:41;;;;;;;4.65;1.88;;;;;;;5.01;63.23;98357.31;10316747;28;20582;-82
2022/04/08 04:04:43;;;;;;;3.58;1.60;;;;;;;5.02;63.21;98366.75;10316896;28;20054;-82
2022/04/08 04:09:46;;;;;;;2.95;1.50;;;;;;;4.96;63.26;98372.31;10313891;28;20077;-82
2022/04/08 04:14:48;;;;;;;3.72;1.60;;;;;;;4.94;62.92;98372.41;10316954;28;20060;-83
2022/04/08 04:19:50;;;;;;;3.58;1.40;;;;;;;5.09;62.14;98384.41;10315130;28;20196;-82
2022/04/08 04:24:52;;;;;;;3.40;1.40;;;;;;;5.12;62.25;98388.56;10315062;28;20054;-82
2022/04/08 04:29:53;;;;;;;4.10;1.40;;;;;;;5.20;61.99;98394.97;10314407;28;20081;-83
2022/04/08 04:34:55;;;;;;;3.80;1.20;;;;;;;5.26;61.61;98397.16;10314964;28;20105;-82
2022/04/08 04:39:57;;;;;;;3.70;1.77;;;;;;;5.30;61.20;98392.59;10296474;28;20054;-83
2022/04/08 04:44:59;;;;;;;3.90;1.67;;;;;;;5.33;60.80;98400.22;10314122;28;20062;-82
2022/04/08 04:50:00;;;;;;;2.15;1.30;;;;;;;5.29;61.00;98393.53;10312684;28;20121;-84
2022/04/08 04:55:04;;;;;;;4.25;1.98;;;;;;;5.44;60.63;98396.00;10296134;28;20707;-83
2022/04/08 05:00:09;;;;;;;3.20;1.40;;;;;;;5.39;60.63;98397.22;10314440;28;20053;-83
2022/04/08 05:05:11;;;;;;;4.55;1.40;;;;;;;5.39;60.81;98402.41;10314288;28;20473;-84
2022/04/08 05:10:13;;;;;;;2.70;1.30;;;;;;;5.44;61.04;98389.97;10311653;28;20471;-83
2022/04/08 05:15:15;;;;;;;2.58;1.20;;;;;;;5.41;61.00;98383.22;10314465;28;20130;-82
2022/04/08 05:20:17;;;;;;;2.88;1.20;;;;;;;5.52;60.83;98385.97;10312029;28;20053;-82
2022/04/08 05:25:18;;;;;;;3.42;1.70;;;;;;;5.61;60.93;98387.16;10312311;28;20112;-84
2022/04/08 05:30:20;;;;;;;3.50;1.30;;;;;;;5.57;60.70;98387.44;10310539;28;20089;-84
2022/04/08 05:35:22;;;;;;;3.72;1.42;;;;;;;5.60;60.66;98390.66;10311065;28;20106;-84
2022/04/08 05:40:24;;;;;;;4.40;1.40;;;;;;;5.72;60.50;98384.69;10310804;28;20058;-84
2022/04/08 05:45:26;;;;;;;4.35;1.67;;;;;;;5.63;60.71;98394.84;10308726;28;20065;-84
2022/04/08 05:50:28;;;;;;;3.92;1.70;;;;;;;5.69;60.76;98397.88;10306626;28;20093;-84
2022/04/08 05:55:30;;;;;;;5.53;1.50;;;;;;;5.72;60.85;98400.25;10308108;28;20141;-84
2022/04/08 06:00:38;;;;;;;3.78;1.70;;;;;;;5.76;60.75;98412.09;10311312;28;20054;-83
2022/04/08 06:05:40;;;;;;;4.65;1.60;;;;;;;5.83;60.15;98403.00;10311953;28;20117;-81
2022/04/08 06:10:42;;;;;;;3.85;1.80;;;;;;;5.86;60.50;98400.19;10305494;28;20081;-82
2022/04/08 06:15:43;;;;;;;4.53;1.50;;;;;;;5.95;60.36;98388.38;10308379;28;20054;-81
2022/04/08 06:20:46;;;;;;;5.50;1.90;;;;;;;5.99;60.14;98382.06;10311919;28;20154;-81
2022/04/08 06:25:48;;;;;;;5.28;2.10;;;;;;;5.74;59.95;98385.41;10311908;28;20463;-82
2022/04/08 06:30:50;;;;;;;6.82;2.30;;;;;;;5.88;59.95;98382.75;10312249;28;20082;-82
2022/04/08 06:35:51;;;;;;;4.82;1.95;;;;;;;5.95;60.16;98378.84;10312222;28;20082;-82
2022/04/08 06:40:53;;;;;;;6.32;2.13;;;;;;;5.99;59.87;98382.06;10295204;28;20054;-82
2022/04/08 06:45:55;;;;;;;6.68;2.40;;;;;;;6.14;59.54;98368.09;10312403;28;20675;-81
2022/04/08 06:50:58;;;;;;;5.75;2.60;;;;;;;6.19;59.86;98366.84;10319000;28;20382;-82
2022/04/08 06:56:04;;;;;;;7.68;3.10;;;;;;;6.28;60.07;98366.28;10302243;28;20512;-81
2022/04/08 07:01:06;;;;;;;7.10;4.20;;;;;;;6.24;60.12;98361.34;10317116;28;20069;-81
2022/04/08 07:06:28;;;;;;;5.28;2.47;;;;;;;6.28;61.10;98353.28;10317995;28;20889;-82
2022/04/08 07:11:30;;;;;;;25.27;18.30;;;;;;;6.47;60.20;98358.03;10316525;28;20132;-82
2022/04/08 07:16:32;;;;;;;6.07;3.28;;;;;;;6.59;59.87;98346.84;10304904;28;20129;-82
2022/04/08 07:21:41;;;;;;;6.90;3.38;;;;;;;6.73;60.10;98340.69;10321419;28;20758;-82
2022/04/08 07:26:44;;;;;;;6.18;2.90;;;;;;;6.81;59.66;98359.19;10294959;28;20125;-82
2022/04/08 07:31:49;;;;;;;9.38;3.30;;;;;;;6.84;59.58;98359.78;10310834;28;20046;-82
2022/04/08 07:36:52;;;;;;;7.70;3.25;;;;;;;6.87;59.47;98350.97;10310052;28;20277;-82
2022/04/08 07:41:56;;;;;;;8.77;2.90;;;;;;;7.06;59.36;98356.53;10310560;28;20141;-82
2022/04/08 07:46:58;;;;;;;8.55;3.28;;;;;;;7.16;59.22;98347.16;10309222;28;20085;-82
2022/04/08 07:52:02;;;;;;;13.23;5.72;;;;;;;7.22;59.11;98354.53;10313028;28;20058;-82
2022/04/08 07:57:04;;;;;;;7.15;4.00;;;;;;;7.29;58.39;98336.69;10312816;28;20056;-82
2022/04/08 08:02:08;;;;;;;8.57;3.58;;;;;;;7.68;57.83;98339.84;10313348;28;20136;-82
2022/04/08 08:07:12;;;;;;;5.88;3.15;;;;;;;8.00;56.99;98340.06;10308432;28;20060;-82
2022/04/08 08:12:18;;;;;;;7.00;2.72;;;;;;;8.35;56.38;98333.09;10311173;28;20563;-82
2022/04/08 08:17:20;;;;;;;6.72;2.95;;;;;;;8.39;56.43;98328.47;10307821;28;20054;-82
2022/04/08 08:22:24;;;;;;;6.43;2.85;;;;;;;8.51;56.36;98324.91;10311886;28;20050;-83
2022/04/08 08:27:53;;;;;;;7.18;2.83;;;;;;;8.42;56.28;98320.44;10311439;28;20054;-82
2022/04/08 08:32:56;;;;;;;9.20;2.58;;;;;;;8.50;56.19;98315.47;10312815;28;20082;-82
2022/04/08 08:37:59;;;;;;;6.60;2.90;;;;;;;8.73;54.93;98309.28;10306959;28;20117;-81
2022/04/08 08:43:02;;;;;;;10.05;3.08;;;;;;;8.62;54.66;98302.31;10309928;28;20104;-82
2022/04/08 08:48:05;;;;;;;8.68;3.63;;;;;;;8.54;54.99;98302.09;10310542;28;20058;-82
2022/04/08 08:53:17;;;;;;;9.05;3.00;;;;;;;8.50;55.26;98305.88;10314666;28;20136;-81
2022/04/08 08:58:29;;;;;;;8.43;3.03;;;;;;;8.44;54.74;98295.09;10314407;28;20097;-81
2022/04/08 09:03:34;;;;;;;5.95;2.30;;;;;;;8.44;55.71;98292.47;10313678;28;20050;-82
2022/04/08 09:08:38;;;;;;;9.93;2.80;;;;;;;8.29;56.42;98278.84;10311267;28;20089;-82
2022/04/08 09:13:46;;;;;;;7.43;2.75;;;;;;;8.07;56.50;98285.78;10293937;28;20190;-80
2022/04/08 09:18:49;;;;;;;9.20;3.10;;;;;;;8.08;57.43;98277.84;10310159;28;20055;-81
2022/04/08 09:23:52;;;;;;;9.15;3.00;;;;;;;8.08;58.24;98270.03;10306295;28;20050;-81
2022/04/08 09:28:56;;;;;;;11.38;3.97;;;;;;;7.86;59.14;98270.84;10304866;28;20162;-80
2022/04/08 09:33:59;;;;;;;10.15;3.10;;;;;;;7.84;59.44;98267.50;10310548;28;20457;-82
2022/04/08 09:39:07;;;;;;;7.75;2.45;;;;;;;7.63;59.33;98252.69;10310733;28;20062;-82
2022/04/08 09:44:13;;;;;;;10.38;3.08;;;;;;;7.54;59.82;98242.94;10289558;28;20567;-81
2022/04/08 09:49:14;;;;;;;7.68;2.28;;;;;;;7.31;58.17;98225.59;10312278;28;20137;-82
2022/04/08 09:54:21;;;;;;;7.47;2.22;;;;;;;7.04;59.88;98223.25;10313670;28;20108;-81
2022/04/08 09:59:28;;;;;;;8.68;2.50;;;;;;;6.77;60.39;98214.84;10315566;28;20046;-81
2022/04/08 10:04:51;;;;;;;10.27;2.60;;;;;;;6.65;61.01;98189.75;10312206;28;20161;-81
2022/04/08 10:10:09;;;;;;;8.45;3.35;;;;;;;6.72;61.21;98188.34;10313581;28;20070;-82
2022/04/08 10:15:34;;;;;;;12.35;5.18;;;;;;;7.14;61.54;98177.47;10315706;28;20105;-81
2022/04/08 10:20:40;;;;;;;13.25;5.47;;;;;;;7.39;61.07;98166.88;10314687;28;20054;-82
2022/04/08 10:25:57;;;;;;;10.68;5.38;;;;;;;7.16;61.23;98167.78;10317600;28;20587;-81
2022/04/08 10:31:31;;;;;;;15.85;6.00;;;;;;;6.93;61.81;98171.22;10315837;28;20139;-81
2022/04/08 10:36:39;;;;;;;13.25;5.97;;;;;;;7.00;62.04;98169.81;10317580;28;20576;-80
2022/04/08 10:41:47;;;;;;;9.52;4.72;;;;;;;6.99;61.87;98171.59;10301122;28;20097;-81
2022/04/08 10:46:52;;;;;;;9.23;4.90;;;;;;;7.10;61.36;98165.63;10314203;28;20057;-81
2022/04/08 10:51:55;;;;;;;8.00;4.88;;;;;;;6.95;62.83;98171.94;10308278;28;20392;-80
2022/04/08 10:56:58;;;;;;;8.52;4.43;;;;;;;6.73;63.30;98182.22;10309906;28;20137;-81
2022/04/08 11:02:05;;;;;;;5.13;2.50;;;;;;;6.55;62.62;98199.13;10312222;28;20141;-81
2022/04/08 11:07:07;;;;;;;3.17;1.38;;;;;;;6.05;61.84;98189.63;10309459;28;20423;-81
2022/04/08 11:12:11;;;;;;;4.63;1.55;;;;;;;5.88;62.34;98182.19;10307737;28;20327;-81
2022/04/08 11:17:14;;;;;;;5.65;2.85;;;;;;;6.02;62.12;98169.91;10306691;28;20058;-81
2022/04/08 11:22:18;;;;;;;5.50;2.30;;;;;;;6.11;62.41;98158.91;10296697;28;20057;-81
2022/04/08 11:27:21;;;;;;;10.40;5.85;;;;;;;6.04;62.29;98146.47;10311292;28;20112;-81
2022/04/08 11:32:29;;;;;;;6.05;2.63;;;;;;;6.28;62.02;98140.41;10313806;28;20291;-82
2022/04/08 11:37:33;;;;;;;4.90;2.30;;;;;;;6.20;62.31;98134.91;10317413;28;20097;-82
2022/04/08 11:42:37;;;;;;;6.90;1.83;;;;;;;6.16;63.20;98127.44;10317236;28;20516;-82
2022/04/08 11:47:46;;;;;;;5.13;2.10;;;;;;;6.09;62.74;98121.84;10314075;28;20605;-82
2022/04/08 11:52:58;;;;;;;6.20;1.70;;;;;;;6.12;61.00;98119.00;10300715;28;20061;-81
2022/04/08 11:58:17;;;;;;;2.65;1.20;;;;;;;6.22;61.73;98116.63;10319812;28;20413;-82
2022/04/08 12:03:29;;;;;;;4.35;1.80;;;;;;;6.31;61.12;98113.38;10317566;28;20050;-82
2022/04/08 12:08:32;;;;;;;4.55;1.58;;;;;;;6.21;59.99;98096.78;10298552;28;20130;-82
2022/04/08 12:13:35;;;;;;;5.07;2.42;;;;;;;6.21;60.91;98100.22;10318492;28;20172;-82
2022/04/08 12:18:49;;;;;;;6.15;2.03;;;;;;;6.26;62.26;98102.53;10316308;28;20072;-75
2022/04/08 12:23:53;;;;;;;5.03;1.80;;;;;;;6.31;61.68;98103.84;10307836;28;20097;-76
2022/04/08 12:29:32;;;;;;;5.90;1.80;;;;;;;6.18;61.78;98097.84;10303259;28;20061;-76
2022/04/08 12:34:35;;;;;;;4.70;1.98;;;;;;;6.05;62.31;98093.63;10303180;28;20061;-76
2022/04/08 12:39:37;;;;;;;3.25;1.58;;;;;;;6.12;61.72;98100.03;10308148;28;20074;-76
2022/04/08 12:44:39;;;;;;;4.95;1.70;;;;;;;6.15;61.65;98087.66;10315116;28;20101;-76
2022/04/08 12:49:41;;;;;;;2.88;1.40;;;;;;;6.27;61.24;98079.03;10285432;28;20168;-76
2022/04/08 12:54:43;;;;;;;4.50;1.50;;;;;;;6.17;60.45;98072.81;10300868;28;20165;-77
2022/04/08 12:59:46;;;;;;;5.78;1.50;;;;;;;5.97;60.80;98073.41;10303081;28;20097;-76
2022/04/08 13:04:48;;;;;;;3.85;1.40;;;;;;;5.88;60.25;98075.81;10301210;28;20062;-76
2022/04/08 13:09:50;;;;;;;4.10;1.40;;;;;;;5.65;59.90;98061.84;10302653;28;20081;-76
2022/04/08 13:14:52;;;;;;;2.60;1.40;;;;;;;5.45;60.08;98059.81;10302607;28;21008;-76
2022/04/08 13:19:54;;;;;;;1.98;1.10;;;;;;;5.51;59.63;98039.47;10301396;28;20054;-76
2022/04/08 13:24:57;;;;;;;3.85;1.30;;;;;;;5.76;60.37;98046.38;10306016;28;20058;-76
2022/04/08 13:29:59;;;;;;;4.63;1.40;;;;;;;6.04;59.22;98042.66;10301684;28;20096;-75
2022/04/08 13:35:01;;;;;;;4.40;1.40;;;;;;;5.91;59.99;98041.88;10301644;28;20054;-75
2022/04/08 13:40:04;;;;;;;2.92;1.38;;;;;;;5.98;59.42;98023.16;10302096;28;20138;-75
2022/04/08 13:45:07;;;;;;;3.88;1.35;;;;;;;5.57;59.56;98030.44;10299945;28;20054;-75
2022/04/08 13:50:10;;;;;;;3.53;1.30;;;;;;;5.60;60.26;98019.84;10311191;28;20054;-75
2022/04/08 13:55:14;;;;;;;2.03;1.35;;;;;;;5.62;59.27;98019.72;10304240;28;20061;-75
2022/04/08 14:00:17;;;;;;;1.58;0.98;;;;;;;5.49;59.50;98020.59;10314841;28;20133;-74
2022/04/08 14:05:18;;;;;;;1.88;1.15;;;;;;;5.65;59.92;98024.72;10312561;28;21093;-75
2022/04/08 14:10:21;;;;;;;2.08;1.48;;;;;;;5.50;59.43;98000.69;10309092;28;20117;-75
2022/04/08 14:15:23;;;;;;;1.63;1.20;;;;;;;5.51;59.66;97997.16;10315393;28;20091;-75
2022/04/08 14:20:28;;;;;;;2.95;1.10;;;;;;;5.25;59.73;98017.09;10314172;28;20061;-75
2022/04/08 14:25:35;;;;;;;1.90;1.20;;;;;;;5.28;60.87;98005.69;10314661;28;20535;-76
2022/04/08 14:30:40;;;;;;;1.40;1.10;;;;;;;5.44;60.00;97985.56;10314649;28;20148;-76
2022/04/08 14:35:42;;;;;;;3.92;1.73;;;;;;;5.52;59.80;97985.84;10315345;28;20060;-76
2022/04/08 14:40:44;;;;;;;3.78;1.40;;;;;;;5.62;60.59;97978.25;10295782;28;20042;-76
2022/04/08 14:45:46;;;;;;;2.13;1.38;;;;;;;5.71;60.27;97999.19;10314855;28;20097;-75
2022/04/08 14:50:48;;;;;;;3.00;1.45;;;;;;;5.49;60.52;98004.22;10309039;28;20456;-76
2022/04/08 14:55:50;;;;;;;2.47;1.38;;;;;;;5.27;59.94;97988.47;10313668;28;20602;-76
2022/04/08 15:00:51;;;;;;;1.98;1.30;;;;;;;5.20;60.57;98000.22;10308999;28;20050;-76
2022/04/08 15:05:53;;;;;;;2.42;1.50;;;;;;;5.11;60.97;97990.47;10300169;28;20054;-75
2022/04/08 15:10:55;;;;;;;2.53;1.58;;;;;;;5.01;60.84;97981.66;10302309;28;20051;-75
2022/04/08 15:15:58;;;;;;;3.00;1.55;;;;;;;5.06;61.10;97984.78;10298006;28;20108;-80
2022/04/08 15:21:00;;;;;;;3.50;2.10;;;;;;;5.07;60.99;97991.59;10305538;28;20053;-76
2022/04/08 15:26:02;;;;;;;4.93;2.60;;;;;;;5.15;61.87;98016.06;10307479;28;20640;-75
2022/04/08 15:31:05;;;;;;;4.13;2.40;;;;;;;5.06;61.61;98042.63;10306245;28;20050;-76
2022/04/08 15:36:06;;;;;;;3.05;2.13;;;;;;;4.59;62.04;98043.19;10306224;28;20061;-76
2022/04/08 15:41:10;;;;;;;2.50;2.00;;;;;;;4.64;61.94;98035.94;10307323;28;20142;-76
2022/04/08 15:46:11;;;;;;;3.53;2.10;;;;;;;4.67;61.18;98025.38;10309041;28;20070;-76
2022/04/08 15:51:13;;;;;;;3.95;2.20;;;;;;;4.68;61.17;98024.44;10288411;28;20129;-76
2022/04/08 15:56:15;;;;;;;3.22;1.80;;;;;;;4.78;61.56;98026.44;10305845;28;20512;-76
2022/04/08 16:01:17;;;;;;;3.30;2.00;;;;;;;4.91;61.37;98037.63;10305288;28;20082;-76
2022/04/08 16:06:19;;;;;;;4.20;2.85;;;;;;;5.02;61.74;98050.69;10305499;28;20060;-76
2022/04/08 16:11:25;;;;;;;5.32;2.88;;;;;;;4.90;62.65;98052.34;10304757;28;20046;-75
2022/04/08 16:16:27;;;;;;;3.75;2.30;;;;;;;5.01;62.40;98055.03;10306563;28;20508;-75
2022/04/08 16:21:29;;;;;;;3.95;2.63;;;;;;;4.96;62.58;98061.47;10306119;28;20129;-75
2022/04/08 16:26:31;;;;;;;3.50;2.40;;;;;;;4.87;62.81;98064.66;10300991;28;20050;-75
2022/04/08 16:31:36;;;;;;;3.00;1.90;;;;;;;4.86;62.88;98061.22;10307104;28;20165;-75
2022/04/08 16:36:38;;;;;;;4.07;2.80;;;;;;;5.04;62.23;98054.84;10304487;28;20475;-75
2022/04/08 16:41:40;;;;;;;2.80;1.63;;;;;;;4.99;62.32;98053.47;10303052;28;20046;-75
2022/04/08 16:46:42;;;;;;;2.88;1.73;;;;;;;4.90;61.94;98051.50;10303451;28;20050;-75
2022/04/08 16:51:44;;;;;;;2.90;1.80;;;;;;;5.02;61.36;98037.75;10290022;28;20058;-75
2022/04/08 16:56:45;;;;;;;3.38;2.15;;;;;;;4.78;60.98;98032.41;10302506;28;20055;-75
2022/04/08 17:01:48;;;;;;;3.20;2.17;;;;;;;4.72;62.34;98041.44;10305100;28;20133;-75
2022/04/08 17:06:50;;;;;;;5.78;3.08;;;;;;;4.82;62.17;98040.84;10287250;28;20054;-76
2022/04/08 17:11:53;;;;;;;3.30;2.33;;;;;;;4.62;62.05;98061.09;10302831;28;20101;-76
2022/04/08 17:16:54;;;;;;;5.38;2.53;;;;;;;4.48;62.29;98055.97;10302385;28;20113;-75
2022/04/08 17:21:57;;;;;;;4.55;2.90;;;;;;;4.65;63.25;98055.72;10303729;28;20445;-76
2022/04/08 17:26:59;;;;;;;5.38;3.45;;;;;;;4.74;62.79;98050.88;10303716;28;20050;-75
2022/04/08 17:32:01;;;;;;;6.35;3.13;;;;;;;4.76;63.11;98033.47;10304464;28;20054;-75
2022/04/08 17:37:03;;;;;;;4.65;3.08;;;;;;;4.78;63.20;98039.38;10303094;28;20065;-75
2022/04/08 17:42:07;;;;;;;5.38;3.10;;;;;;;4.78;63.18;98036.78;10308410;28;20054;-75
2022/04/08 17:47:14;;;;;;;6.75;4.80;;;;;;;4.71;63.04;98026.00;10304651;28;20082;-75
2022/04/08 17:52:16;;;;;;;6.70;4.05;;;;;;;4.75;63.21;98024.03;10304470;28;20167;-76
2022/04/08 17:57:22;;;;;;;5.15;3.70;;;;;;;4.70;63.35;98020.00;10301948;28;20054;-76
2022/04/08 18:02:24;;;;;;;6.45;4.78;;;;;;;4.61;63.77;98023.19;10285647;28;20140;-76
2022/04/08 18:07:28;;;;;;;6.38;4.60;;;;;;;4.46;63.73;98019.00;10303085;28;20058;-76
2022/04/08 18:12:34;;;;;;;5.32;4.20;;;;;;;4.32;64.40;98013.91;10305648;28;20411;-76
2022/04/08 18:17:36;;;;;;;5.30;4.40;;;;;;;4.45;64.39;98014.78;10301931;28;20050;-76
2022/04/08 18:22:38;;;;;;;5.75;4.28;;;;;;;4.53;64.29;98027.22;10291554;28;20134;-76
2022/04/08 18:27:40;;;;;;;5.90;4.93;;;;;;;4.49;64.26;98041.28;10292749;28;20054;-76
2022/04/08 18:32:42;;;;;;;5.15;4.57;;;;;;;4.43;64.31;98032.13;10301500;28;20101;-75
2022/04/08 18:37:44;;;;;;;7.07;6.20;;;;;;;4.45;64.70;98050.19;10303317;28;20047;-74
2022/04/08 18:42:45;;;;;;;10.57;8.77;;;;;;;4.46;64.23;98060.44;10307190;28;20148;-74
2022/04/08 18:47:47;;;;;;;7.93;6.63;;;;;;;4.31;64.24;98058.81;10311156;28;20133;-75
2022/04/08 18:52:49;;;;;;;6.97;6.28;;;;;;;4.25;64.39;98043.69;10312166;28;20487;-75
2022/04/08 18:57:51;;;;;;;10.00;8.25;;;;;;;4.43;64.52;98042.50;10311285;28;20116;-75
2022/04/08 19:02:54;;;;;;;9.30;7.10;;;;;;;4.35;64.09;98029.22;10310779;28;20373;-75
2022/04/08 19:07:56;;;;;;;11.07;8.82;;;;;;;4.41;64.74;98023.66;10311713;28;20070;-76
2022/04/08 19:12:57;;;;;;;10.00;8.55;;;;;;;4.31;64.95;98032.13;10293461;28;20050;-75
2022/04/08 19:17:59;;;;;;;8.68;7.78;;;;;;;4.35;64.98;98049.91;10309054;28;20054;-75
2022/04/08 19:23:02;;;;;;;9.75;8.07;;;;;;;4.38;65.16;98036.81;10309939;28;20054;-75
2022/04/08 19:28:04;;;;;;;10.30;9.20;;;;;;;4.02;65.59;98041.75;10310141;28;20050;-75
2022/04/08 19:33:06;;;;;;;9.40;8.20;;;;;;;4.13;65.79;98036.69;10309318;28;20141;-75
2022/04/08 19:38:08;;;;;;;9.93;8.15;;;;;;;4.19;65.78;98059.59;10310869;28;20132;-75
2022/04/08 19:43:10;;;;;;;12.15;10.15;;;;;;;3.95;65.90;98063.72;10307504;28;20158;-75
2022/04/08 19:48:12;;;;;;;20.42;13.40;;;;;;;4.17;65.90;98014.06;10306724;28;20058;-75
2022/04/08 19:53:14;;;;;;;11.45;9.70;;;;;;;4.11;66.04;98017.06;10309268;28;20073;-74
2022/04/08 19:58:18;;;;;;;14.40;10.52;;;;;;;4.10;65.81;98034.31;10308842;28;20341;-74
2022/04/08 20:03:20;;;;;;;11.35;9.88;;;;;;;4.05;66.18;98041.53;10307146;28;20050;-76
2022/04/08 20:08:22;;;;;;;11.23;9.30;;;;;;;3.98;65.95;98067.88;10308434;28;20050;-75
2022/04/08 20:13:24;;;;;;;9.77;8.77;;;;;;;3.94;66.68;98069.84;10308149;28;20239;-75
2022/04/08 20:18:27;;;;;;;11.57;10.38;;;;;;;4.01;66.33;98060.75;10307702;28;20062;-75
2022/04/08 20:23:30;;;;;;;13.30;9.93;;;;;;;3.88;66.59;98082.31;10308283;28;20053;-75
2022/04/08 20:28:32;;;;;;;11.95;10.38;;;;;;;4.01;66.38;98084.03;10307852;28;20448;-75
2022/04/08 20:33:36;;;;;;;15.50;11.55;;;;;;;3.93;66.47;98086.28;10307621;28;20140;-75
2022/04/08 20:38:38;;;;;;;11.43;10.23;;;;;;;3.81;66.74;98090.44;10307418;28;20100;-75
2022/04/08 20:43:40;;;;;;;10.73;9.57;;;;;;;3.68;66.37;98105.00;10307034;28;20465;-74
2022/04/08 20:48:42;;;;;;;16.33;11.95;;;;;;;3.92;66.36;98082.03;10288772;28;20086;-75
2022/04/08 20:53:45;;;;;;;10.65;8.90;;;;;;;3.88;66.33;98070.22;10307884;28;20113;-74
2022/04/08 20:58:48;;;;;;;10.48;9.32;;;;;;;4.02;66.40;98082.28;10305835;28;20132;-75
2022/04/08 21:03:50;;;;;;;12.07;10.10;;;;;;;4.12;66.25;98111.81;10305932;28;20770;-75
2022/04/08 21:08:55;;;;;;;11.15;9.82;;;;;;;4.05;66.27;98110.56;10303693;28;20086;-75
2022/04/08 21:13:56;;;;;;;11.93;10.20;;;;;;;3.82;66.46;98122.28;10306103;28;20103;-75
2022/04/08 21:18:59;;;;;;;12.52;11.18;;;;;;;3.74;66.88;98142.63;10305552;28;20500;-75
2022/04/08 21:24:01;;;;;;;12.35;9.35;;;;;;;3.60;66.94;98146.00;10304823;28;20062;-74
2022/04/08 21:29:03;;;;;;;11.63;9.68;;;;;;;3.70;66.79;98154.06;10306222;28;20090;-75
2022/04/08 21:34:05;;;;;;;11.63;9.30;;;;;;;3.63;66.76;98157.91;10303134;28;20180;-74
2022/04/08 21:39:07;;;;;;;11.93;9.60;;;;;;;3.47;67.01;98152.00;10304316;28;20488;-74
2022/04/08 21:44:09;;;;;;;10.50;8.82;;;;;;;3.50;67.13;98157.81;10304594;28;20058;-74
2022/04/08 21:49:11;;;;;;;13.07;10.23;;;;;;;3.60;67.01;98165.88;10303862;28;20050;-75
2022/04/08 21:54:15;;;;;;;13.50;11.15;;;;;;;3.49;67.16;98173.41;10287781;28;20139;-74
2022/04/08 21:59:18;;;;;;;15.73;12.00;;;;;;;3.55;67.19;98178.22;10304779;28;20050;-75
2022/04/08 22:04:19;;;;;;;11.95;10.23;;;;;;;3.60;67.11;98189.94;10303870;28;20058;-74
2022/04/08 22:09:21;;;;;;;14.73;11.43;;;;;;;3.59;67.35;98184.88;10303925;28;20081;-74
2022/04/08 22:14:24;;;;;;;11.98;10.10;;;;;;;3.56;67.37;98193.63;10304473;28;20133;-75
2022/04/08 22:19:26;;;;;;;12.70;10.10;;;;;;;3.63;67.38;98202.69;10293331;28;20257;-75
2022/04/08 22:24:28;;;;;;;14.57;11.18;;;;;;;3.53;67.27;98217.09;10311913;28;20090;-75
2022/04/08 22:29:31;;;;;;;12.95;10.30;;;;;;;3.55;67.12;98230.75;10312610;28;20058;-75
2022/04/08 22:34:33;;;;;;;13.75;11.02;;;;;;;3.56;67.09;98244.50;10312015;28;20490;-74
2022/04/08 22:39:35;;;;;;;16.02;12.15;;;;;;;3.46;67.16;98249.38;10310829;28;20085;-75
2022/04/08 22:44:37;;;;;;;16.02;12.13;;;;;;;3.29;67.72;98259.00;10309656;28;20492;-74
2022/04/08 22:49:39;;;;;;;16.17;12.85;;;;;;;3.39;67.58;98270.50;10309907;28;20544;-75
2022/04/08 22:54:41;;;;;;;17.75;12.50;;;;;;;3.42;67.44;98284.06;10310245;28;20054;-74
2022/04/08 22:59:46;;;;;;;16.80;13.27;;;;;;;3.48;67.22;98291.47;10308532;28;20054;-74
2022/04/08 23:04:48;;;;;;;18.75;13.48;;;;;;;3.46;67.28;98313.97;10310542;28;20070;-74
2022/04/08 23:09:50;;;;;;;20.17;14.63;;;;;;;3.51;67.21;98329.22;10310405;28;20492;-74
2022/04/08 23:14:52;;;;;;;17.98;13.40;;;;;;;3.46;66.95;98344.13;10308842;28;20574;-74
2022/04/08 23:19:53;;;;;;;17.35;14.35;;;;;;;3.40;67.26;98357.41;10310474;28;20081;-74
2022/04/08 23:24:55;;;;;;;20.08;14.35;;;;;;;3.38;67.28;98365.25;10310033;28;20062;-74
2022/04/08 23:29:57;;;;;;;19.80;14.63;;;;;;;3.36;67.45;98374.00;10308797;28;20160;-75
2022/04/08 23:34:59;;;;;;;21.92;15.57;;;;;;;3.39;67.30;98391.94;10309568;28;20169;-75
2022/04/08 23:40:00;;;;;;;21.20;15.55;;;;;;;3.40;67.28;98404.75;10309710;28;20648;-76
2022/04/08 23:45:03;;;;;;;21.10;15.68;;;;;;;3.38;67.42;98416.09;10309757;28;20062;-75